Time;durP1;ratioP1;P1;durP2;ratioP2;P2;SDS_P1;SDS_P2;PMS_P1;PMS_P2;Temp;Humidity;BMP_temperature;BMP_pressure;BME280_temperature;BME280_humidity;BME280_pressure;Samples;Min_cycle;Max_cycle;Signal;HPM_P1;HPM_P2
2023/10/05 00:03:50;;;;;;;6.80;3.02;;;;;;;11.02;100.00;101316.88;1453043;89;21575;-86
2023/10/05 00:06:15;;;;;;;8.00;3.40;;;;;;;11.03;100.00;101321.19;1455090;89;21450;-85
2023/10/05 00:08:45;;;;;;;4.57;3.03;;;;;;;11.01;100.00;101319.98;1450840;89;21959;-85
2023/10/05 00:11:24;;;;;;;7.20;3.23;;;;;;;11.00;100.00;101315.66;1460860;88;21324;-86
2023/10/05 00:13:59;;;;;;;7.13;3.93;;;;;;;10.99;100.00;101317.11;1454627;88;21840;-85
2023/10/05 00:16:37;;;;;;;7.83;3.07;;;;;;;10.95;100.00;101308.58;1453005;89;21406;-85
2023/10/05 00:19:10;;;;;;;8.53;2.83;;;;;;;10.92;100.00;101311.98;1457871;89;21391;-85
2023/10/05 00:21:39;;;;;;;5.93;2.83;;;;;;;10.84;100.00;101312.61;1457877;89;21421;-85
2023/10/05 00:24:11;;;;;;;6.77;2.87;;;;;;;10.83;100.00;101307.80;1447429;88;21428;-84
2023/10/05 00:26:37;;;;;;;7.40;3.10;;;;;;;10.86;100.00;101303.23;1453493;88;22359;-86
2023/10/05 00:31:30;;;;;;;7.03;3.20;;;;;;;10.91;100.00;101303.69;1453868;89;21399;-85
2023/10/05 00:34:02;;;;;;;6.70;3.57;;;;;;;10.90;100.00;101306.80;1454646;89;21384;-85
2023/10/05 00:36:33;;;;;;;8.13;3.37;;;;;;;10.86;100.00;101309.84;1451639;89;21354;-85
2023/10/05 00:39:02;;;;;;;12.33;3.47;;;;;;;10.77;100.00;101312.28;1461987;88;22344;-84
2023/10/05 00:41:28;;;;;;;7.73;2.93;;;;;;;10.72;100.00;101309.17;1459176;88;21509;-85
2023/10/05 00:43:55;;;;;;;6.47;3.50;;;;;;;10.69;100.00;101313.40;1458976;89;21554;-85
2023/10/05 00:46:23;;;;;;;9.50;3.63;;;;;;;10.69;100.00;101308.59;1460955;89;21473;-85
2023/10/05 00:51:36;;;;;;;7.90;3.40;;;;;;;10.70;100.00;101304.97;1450218;89;21361;-85
2023/10/05 00:54:05;;;;;;;5.50;3.50;;;;;;;10.66;100.00;101306.20;1453738;88;22396;-85
2023/10/05 00:56:35;;;;;;;5.33;3.33;;;;;;;10.60;100.00;101303.58;1457136;89;21576;-85
2023/10/05 00:59:06;;;;;;;6.40;3.10;;;;;;;10.55;100.00;101307.08;1456392;88;21449;-89
2023/10/05 01:04:26;;;;;;;8.60;3.03;;;;;;;10.50;100.00;101306.61;1456814;89;21355;-91
2023/10/05 01:12:13;;;;;;;6.57;2.87;;;;;;;10.47;100.00;101321.41;1457820;89;21413;-93
2023/10/05 01:14:27;;;;;;;;;;;;;;;10.50;100.00;101320.70;1439544;89;21450;-91
2023/10/05 01:16:54;;;;;;;7.97;2.60;;;;;;;10.54;100.00;101321.29;1453508;89;20352;-91
2023/10/05 01:19:19;;;;;;;6.70;3.40;;;;;;;10.59;100.00;101323.08;1456449;89;21405;-91
2023/10/05 01:21:46;;;;;;;5.17;3.07;;;;;;;10.61;100.00;101321.13;1456283;88;21405;-91
2023/10/05 01:24:12;;;;;;;9.33;3.20;;;;;;;10.60;100.00;101314.16;1459008;88;22417;-91
2023/10/05 01:26:38;;;;;;;9.33;3.63;;;;;;;10.62;100.00;101317.53;1456904;89;21435;-87
2023/10/05 01:29:05;;;;;;;6.60;3.00;;;;;;;10.64;100.00;101312.94;1454758;88;21428;-87
2023/10/05 01:31:32;;;;;;;9.03;2.80;;;;;;;10.64;100.00;101314.75;1440296;89;21420;-87
2023/10/05 01:33:59;;;;;;;5.17;3.37;;;;;;;10.61;100.00;101319.80;1457593;89;21398;-87
2023/10/05 01:36:25;;;;;;;4.93;3.27;;;;;;;10.58;100.00;101318.73;1459390;88;21354;-87
2023/10/05 01:39:00;;;;;;;11.57;3.50;;;;;;;10.56;100.00;101320.20;1453181;88;21428;-87
2023/10/05 01:41:26;;;;;;;5.97;2.93;;;;;;;10.54;100.00;101314.67;1459438;88;21592;-89
2023/10/05 01:43:52;;;;;;;5.87;2.90;;;;;;;10.55;100.00;101313.70;1453665;88;21464;-89
2023/10/05 01:46:18;;;;;;;8.00;3.90;;;;;;;10.56;100.00;101316.23;1456774;89;21892;-85
2023/10/05 01:48:44;;;;;;;6.43;2.70;;;;;;;10.59;100.00;101320.44;1457979;89;21354;-85
2023/10/05 01:51:15;;;;;;;7.17;2.63;;;;;;;10.61;100.00;101313.19;1454655;88;21513;-86
2023/10/05 01:53:40;;;;;;;6.67;3.30;;;;;;;10.61;100.00;101310.54;1457328;88;21391;-85
2023/10/05 01:56:16;;;;;;;9.73;3.57;;;;;;;10.55;100.00;101320.31;1445444;89;21412;-85
2023/10/05 01:58:43;;;;;;;10.90;3.13;;;;;;;10.48;100.00;101309.88;1456033;88;21572;-84
2023/10/05 02:01:10;;;;;;;6.00;3.70;;;;;;;10.45;100.00;101316.27;1460453;87;21384;-85
2023/10/05 02:03:38;;;;;;;5.53;3.37;;;;;;;10.46;100.00;101315.28;1462593;88;22227;-84
2023/10/05 02:06:10;;;;;;;6.77;2.80;;;;;;;10.49;100.00;101312.88;1458964;88;21362;-84
2023/10/05 02:08:36;;;;;;;6.33;3.33;;;;;;;10.51;100.00;101321.55;1456291;88;21464;-90
2023/10/05 02:11:03;;;;;;;6.87;3.60;;;;;;;10.53;100.00;101323.56;1450683;88;22323;-88
2023/10/05 02:13:29;;;;;;;10.47;3.43;;;;;;;10.54;100.00;101322.61;1449124;88;22337;-89
2023/10/05 02:15:58;;;;;;;9.90;3.57;;;;;;;10.55;100.00;101322.95;1453021;88;21700;-85
2023/10/05 02:18:26;;;;;;;11.13;3.83;;;;;;;10.55;100.00;101312.38;1460514;88;21509;-85
2023/10/05 02:21:07;;;;;;;8.87;3.17;;;;;;;10.53;100.00;101313.84;1458518;88;21457;-86
2023/10/05 02:23:37;;;;;;;6.27;3.30;;;;;;;10.51;100.00;101313.11;1452875;89;21384;-86
2023/10/05 02:26:05;;;;;;;7.63;3.27;;;;;;;10.48;100.00;101313.37;1452202;88;21509;-87
2023/10/05 02:28:33;;;;;;;6.03;3.10;;;;;;;10.45;100.00;101309.65;1460517;88;21531;-86
2023/10/05 02:30:59;;;;;;;8.73;4.23;;;;;;;10.43;100.00;101312.89;1452245;89;21501;-86
2023/10/05 02:33:27;;;;;;;7.67;3.97;;;;;;;10.38;100.00;101309.28;1460644;88;21501;-86
2023/10/05 02:35:59;;;;;;;9.40;3.67;;;;;;;10.33;100.00;101311.48;1454869;88;21420;-86
2023/10/05 02:38:23;;;;;;;9.63;4.10;;;;;;;10.30;100.00;101307.77;1442480;88;22381;-86
2023/10/05 02:40:54;;;;;;;5.93;3.37;;;;;;;10.27;100.00;101308.02;1456030;87;21561;-85
2023/10/05 02:43:17;;;;;;;6.77;3.20;;;;;;;10.22;100.00;101308.84;1454133;89;21391;-85
2023/10/05 02:45:44;;;;;;;11.23;3.50;;;;;;;10.20;100.00;101320.02;1459295;88;22240;-85
2023/10/05 02:48:12;;;;;;;5.13;3.20;;;;;;;10.20;100.00;101319.18;1455314;88;21508;-85
2023/10/05 02:50:39;;;;;;;9.87;4.20;;;;;;;10.19;100.00;101318.34;1452475;89;21421;-84
2023/10/05 02:53:06;;;;;;;6.20;2.90;;;;;;;10.19;100.00;101324.95;1452372;89;21532;-85
2023/10/05 02:55:36;;;;;;;10.40;3.97;;;;;;;10.17;100.00;101334.33;1454704;88;21532;-84
2023/10/05 02:58:06;;;;;;;7.30;3.90;;;;;;;10.15;100.00;101331.44;1451525;88;22242;-85
2023/10/05 03:00:37;;;;;;;7.17;3.43;;;;;;;10.08;100.00;101335.06;1455801;88;21436;-92
2023/10/05 03:03:05;;;;;;;6.87;3.87;;;;;;;10.04;100.00;101341.58;1445013;88;21443;-87
2023/10/05 03:05:38;;;;;;;8.80;3.70;;;;;;;10.01;100.00;101342.28;1456222;89;21516;-87
2023/10/05 03:08:04;;;;;;;6.57;3.57;;;;;;;10.03;100.00;101342.52;1451315;89;21354;-88
2023/10/05 03:10:30;;;;;;;9.40;3.63;;;;;;;10.09;100.00;101344.67;1457550;89;22240;-87
2023/10/05 03:12:56;;;;;;;6.03;3.27;;;;;;;10.17;100.00;101337.46;1455555;88;21517;-85
2023/10/05 03:15:27;;;;;;;8.90;3.97;;;;;;;10.22;100.00;101335.30;1450179;89;21825;-86
2023/10/05 03:17:56;;;;;;;7.67;4.08;;;;;;;10.25;100.00;101331.56;1452893;89;22374;-86
2023/10/05 03:20:22;;;;;;;5.67;4.17;;;;;;;10.21;100.00;101326.98;1451494;88;21554;-86
2023/10/05 03:22:48;;;;;;;6.47;3.23;;;;;;;10.19;100.00;101328.09;1459080;88;21331;-86
2023/10/05 03:25:16;;;;;;;8.10;3.60;;;;;;;10.14;100.00;101332.42;1457198;88;21377;-86
2023/10/05 03:27:45;;;;;;;9.20;3.40;;;;;;;10.10;100.00;101330.99;1449069;88;21576;-85
2023/10/05 03:30:14;;;;;;;9.13;3.30;;;;;;;10.10;100.00;101334.96;1447802;88;21494;-85
2023/10/05 03:32:39;;;;;;;12.77;3.50;;;;;;;10.09;100.00;101336.73;1464114;88;22408;-85
2023/10/05 03:35:08;;;;;;;8.23;3.70;;;;;;;10.07;100.00;101330.75;1462756;88;21472;-85
2023/10/05 03:37:34;;;;;;;10.80;5.63;;;;;;;10.07;100.00;101325.92;1450350;88;21428;-85
2023/10/05 03:42:29;;;;;;;6.43;3.97;;;;;;;9.99;100.00;101326.55;1454713;88;22021;-85
2023/10/05 03:45:09;;;;;;;8.40;3.37;;;;;;;9.91;100.00;101324.98;1449366;88;22466;-89
2023/10/05 03:47:39;;;;;;;6.67;3.03;;;;;;;9.80;100.00;101323.18;1460861;88;21516;-84
2023/10/05 03:50:09;;;;;;;8.70;3.33;;;;;;;9.75;100.00;101317.41;1443861;88;21377;-85
2023/10/05 03:52:35;;;;;;;7.93;3.70;;;;;;;9.71;100.00;101323.91;1459343;89;21583;-84
2023/10/05 03:55:05;;;;;;;6.40;3.10;;;;;;;9.71;100.00;101323.91;1428832;88;21577;-84
2023/10/05 03:57:32;;;;;;;7.23;3.00;;;;;;;9.72;100.00;101326.91;1453434;89;21420;-87
2023/10/05 03:59:59;;;;;;;7.20;3.60;;;;;;;9.73;100.00;101316.71;1446653;88;21542;-84
2023/10/05 04:02:28;;;;;;;8.03;4.60;;;;;;;9.78;100.00;101313.69;1453721;88;21421;-85
2023/10/05 04:04:55;;;;;;;9.33;4.33;;;;;;;9.77;100.00;101318.14;1450177;88;21577;-84
2023/10/05 04:07:22;;;;;;;6.90;4.00;;;;;;;9.80;100.00;101318.38;1453726;89;21443;-84
2023/10/05 04:09:48;;;;;;;4.93;2.97;;;;;;;9.76;100.00;101323.56;1449360;88;21376;-84
2023/10/05 04:12:15;;;;;;;9.97;4.53;;;;;;;9.72;100.00;101328.22;1457675;89;21398;-86
2023/10/05 04:14:41;;;;;;;8.67;4.13;;;;;;;9.70;100.00;101325.72;1456195;89;22298;-85
2023/10/05 04:17:11;;;;;;;10.27;3.73;;;;;;;9.71;100.00;101318.63;1461857;88;21398;-85
2023/10/05 04:19:41;;;;;;;8.50;3.55;;;;;;;9.73;100.00;101315.88;1436757;89;22479;-86
2023/10/05 04:22:06;;;;;;;7.43;3.80;;;;;;;9.72;100.00;101309.72;1457936;88;22471;-89
2023/10/05 04:24:33;;;;;;;6.43;3.70;;;;;;;9.70;100.00;101309.02;1452373;88;21398;-90
2023/10/05 04:26:59;;;;;;;9.00;3.83;;;;;;;9.63;100.00;101309.96;1445398;88;22258;-88
2023/10/05 04:29:25;;;;;;;6.00;3.90;;;;;;;9.57;100.00;101312.25;1453442;88;21325;-88
2023/10/05 04:31:53;;;;;;;7.77;4.60;;;;;;;9.54;100.00;101308.53;1450787;88;21398;-91
2023/10/05 04:34:19;;;;;;;18.00;4.77;;;;;;;9.53;100.00;101298.44;1445450;89;21647;-88
2023/10/05 04:36:48;;;;;;;14.83;4.20;;;;;;;9.55;100.00;101301.81;1449518;88;21324;-89
2023/10/05 04:39:34;;;;;;;9.63;3.93;;;;;;;9.56;100.00;101294.23;1455391;89;21368;-88
2023/10/05 04:41:49;;;;;;;11.37;4.00;;;;;;;9.60;100.00;101296.16;1455965;89;21353;-87
2023/10/05 04:44:17;;;;;;;7.93;4.53;;;;;;;9.61;100.00;101293.86;1447295;89;21576;-88
2023/10/05 04:46:49;;;;;;;13.30;5.57;;;;;;;9.64;100.00;101283.91;1455461;89;21502;-91
2023/10/05 04:49:20;;;;;;;8.30;4.13;;;;;;;9.65;100.00;101284.75;1453533;88;21361;-88
2023/10/05 04:51:46;;;;;;;7.12;3.52;;;;;;;9.65;100.00;101287.39;1464040;89;22418;-87
2023/10/05 04:54:18;;;;;;;6.53;3.83;;;;;;;9.64;100.00;101280.44;1433646;89;21383;-87
2023/10/05 05:04:52;;;;;;;8.03;3.90;;;;;;;9.73;100.00;101278.38;1457650;89;21361;-88
2023/10/05 05:07:10;;;;;;;8.23;4.33;;;;;;;9.79;100.00;101282.34;1451727;88;21531;-88
2023/10/05 05:09:41;;;;;;;7.73;3.73;;;;;;;9.82;100.00;101286.90;1450559;88;21546;-89
2023/10/05 05:12:16;;;;;;;10.17;4.33;;;;;;;9.81;100.00;101287.87;1455857;89;21420;-81
2023/10/05 05:14:41;;;;;;;13.07;4.83;;;;;;;9.81;100.00;101290.52;1457632;88;21435;-85
2023/10/05 05:17:12;;;;;;;10.43;3.80;;;;;;;9.84;100.00;101286.30;1454248;89;21449;-86
2023/10/05 05:19:41;;;;;;;14.25;4.10;;;;;;;9.84;100.00;101277.05;1450277;89;21627;-86
2023/10/05 05:22:09;;;;;;;10.75;4.90;;;;;;;9.87;100.00;101283.91;1462123;89;21391;-87
2023/10/05 05:24:37;;;;;;;8.37;3.63;;;;;;;9.89;100.00;101285.44;1456668;88;21353;-87
2023/10/05 05:27:19;;;;;;;10.13;4.53;;;;;;;9.93;100.00;101296.14;1464592;88;21376;-87
2023/10/05 05:29:34;;;;;;;9.78;4.40;;;;;;;9.98;100.00;101304.17;1449050;88;22417;-87
2023/10/05 05:32:09;;;;;;;9.73;3.90;;;;;;;10.03;100.00;101311.27;1459118;89;21397;-87
2023/10/05 05:34:31;;;;;;;;;;;;;;;10.08;100.00;101299.84;1453119;88;21604;-87
2023/10/05 05:36:57;;;;;;;12.27;4.30;;;;;;;10.15;100.00;101301.02;1449685;89;20227;-85
2023/10/05 05:39:25;;;;;;;11.50;4.00;;;;;;;10.20;100.00;101298.85;1462773;87;21620;-88
2023/10/05 05:41:59;;;;;;;18.13;4.30;;;;;;;10.26;100.00;101300.16;1446739;88;21398;-88
2023/10/05 05:44:24;;;;;;;8.80;4.60;;;;;;;10.31;100.00;101304.16;1461009;88;21575;-89
2023/10/05 05:46:52;;;;;;;17.77;4.40;;;;;;;10.34;100.00;101315.80;1454431;88;21333;-88
2023/10/05 05:49:21;;;;;;;14.17;3.87;;;;;;;10.42;100.00;101324.95;1453461;89;21509;-87
2023/10/05 05:51:46;;;;;;;11.13;4.37;;;;;;;10.51;100.00;101322.87;1448208;87;21969;-88
2023/10/05 05:54:18;;;;;;;8.63;3.20;;;;;;;10.52;100.00;101321.89;1448084;88;21244;-87
2023/10/05 05:56:45;;;;;;;7.23;4.27;;;;;;;10.48;100.00;101323.95;1463516;89;22448;-84
2023/10/05 05:59:13;;;;;;;7.50;3.70;;;;;;;10.41;100.00;101321.43;1454940;89;21532;-89
2023/10/05 06:01:39;;;;;;;8.20;4.30;;;;;;;10.39;100.00;101329.52;1464653;89;21420;-90
2023/10/05 06:04:05;;;;;;;10.77;4.87;;;;;;;10.30;100.00;101332.91;1462366;88;21414;-90
2023/10/05 06:06:32;;;;;;;6.53;3.73;;;;;;;10.24;100.00;101326.77;1457876;88;21472;-91
2023/10/05 06:08:58;;;;;;;10.47;4.57;;;;;;;10.24;100.00;101325.44;1456220;88;22366;-89
2023/10/05 06:11:24;;;;;;;8.83;3.73;;;;;;;10.27;100.00;101323.90;1455144;88;21496;-86
2023/10/05 06:13:50;;;;;;;6.70;3.60;;;;;;;10.31;100.00;101322.67;1455099;89;21384;-79
2023/10/05 06:16:17;;;;;;;11.77;4.40;;;;;;;10.39;100.00;101326.03;1450540;89;21589;-83
2023/10/05 06:18:44;;;;;;;7.27;3.63;;;;;;;10.46;100.00;101329.01;1454590;89;21398;-82
2023/10/05 06:21:11;;;;;;;9.47;4.80;;;;;;;10.50;100.00;101327.33;1448383;88;21539;-80
2023/10/05 06:23:37;;;;;;;9.33;5.17;;;;;;;10.58;100.00;101322.22;1439709;89;21451;-83
2023/10/05 06:26:06;;;;;;;34.70;13.47;;;;;;;10.72;100.00;101321.09;1447414;89;21591;-81
2023/10/05 06:28:35;;;;;;;26.27;14.03;;;;;;;10.84;100.00;101313.94;1453112;89;22381;-83
2023/10/05 06:31:01;;;;;;;17.40;9.03;;;;;;;10.88;100.00;101325.14;1451849;88;21383;-83
2023/10/05 06:33:28;;;;;;;18.17;8.63;;;;;;;10.96;100.00;101327.95;1450844;89;21332;-83
2023/10/05 06:35:54;;;;;;;13.87;5.63;;;;;;;11.09;100.00;101325.14;1452703;89;21565;-83
2023/10/05 06:38:20;;;;;;;13.23;7.27;;;;;;;11.21;100.00;101322.28;1457023;88;21635;-82
2023/10/05 06:40:47;;;;;;;15.63;6.03;;;;;;;11.36;100.00;101327.25;1456515;89;21457;-83
2023/10/05 06:43:15;;;;;;;10.80;4.73;;;;;;;11.41;100.00;101334.33;1456557;89;21332;-83
2023/10/05 06:45:44;;;;;;;10.93;5.30;;;;;;;11.48;100.00;101338.16;1446736;88;21554;-83
2023/10/05 06:48:11;;;;;;;8.83;5.03;;;;;;;11.59;100.00;101339.37;1454281;89;21754;-85
2023/10/05 06:50:37;;;;;;;14.60;4.00;;;;;;;11.74;100.00;101339.39;1450415;89;21774;-83
2023/10/05 06:53:11;;;;;;;14.40;4.37;;;;;;;11.90;100.00;101335.43;1455313;88;21362;-82
2023/10/05 06:55:38;;;;;;;11.60;5.23;;;;;;;12.01;100.00;101344.62;1455058;89;21317;-83
2023/10/05 06:58:05;;;;;;;12.83;5.47;;;;;;;12.18;100.00;101346.63;1449569;88;21456;-83
2023/10/05 07:00:37;;;;;;;13.47;4.90;;;;;;;12.36;100.00;101344.14;1454970;89;22396;-83
2023/10/05 07:03:07;;;;;;;14.60;4.67;;;;;;;12.49;100.00;101345.23;1451546;89;21391;-83
2023/10/05 07:05:39;;;;;;;11.50;3.67;;;;;;;12.61;100.00;101349.42;1447282;89;21458;-82
2023/10/05 07:12:06;;;;;;;6.40;3.30;;;;;;;12.71;100.00;101349.92;1461342;89;21561;-84
2023/10/05 07:14:33;;;;;;;11.70;4.13;;;;;;;12.62;100.00;101340.47;1446728;89;22320;-84
2023/10/05 07:16:59;;;;;;;9.93;4.40;;;;;;;12.64;100.00;101345.66;1454129;89;21317;-84
2023/10/05 07:19:25;;;;;;;7.70;3.63;;;;;;;12.61;100.00;101351.25;1444813;88;21582;-84
2023/10/05 07:21:51;;;;;;;11.73;3.83;;;;;;;12.60;100.00;101350.88;1458838;88;22315;-83
2023/10/05 07:24:18;;;;;;;7.70;3.33;;;;;;;12.62;100.00;101351.09;1455583;89;21405;-84
2023/10/05 07:26:44;;;;;;;8.77;4.07;;;;;;;12.67;100.00;101359.98;1456274;89;21310;-84
2023/10/05 07:29:10;;;;;;;8.17;3.93;;;;;;;12.71;100.00;101353.90;1460146;89;22396;-84
2023/10/05 07:31:36;;;;;;;9.67;3.50;;;;;;;12.74;100.00;101355.78;1443528;88;21413;-85
2023/10/05 07:34:02;;;;;;;7.80;4.27;;;;;;;12.84;100.00;101359.79;1446232;89;21501;-84
2023/10/05 07:36:29;;;;;;;9.13;3.63;;;;;;;12.96;100.00;101358.66;1454383;88;21708;-84
2023/10/05 07:38:57;;;;;;;7.10;4.10;;;;;;;12.99;100.00;101358.38;1454602;89;21479;-84
2023/10/05 07:41:23;;;;;;;6.80;3.77;;;;;;;13.12;100.00;101362.09;1457642;89;22249;-85
2023/10/05 07:43:50;;;;;;;10.50;4.47;;;;;;;13.15;100.00;101364.93;1458529;89;21375;-84
2023/10/05 07:46:17;;;;;;;11.17;4.27;;;;;;;13.26;100.00;101363.02;1455924;89;21420;-84
2023/10/05 07:48:45;;;;;;;7.60;4.13;;;;;;;13.43;100.00;101368.56;1453041;88;21363;-85
2023/10/05 07:51:16;;;;;;;8.93;4.23;;;;;;;13.61;100.00;101358.02;1454429;88;21554;-84
2023/10/05 07:53:43;;;;;;;11.05;4.78;;;;;;;13.81;100.00;101361.45;1463657;88;21451;-85
2023/10/05 07:56:09;;;;;;;8.23;4.20;;;;;;;14.00;100.00;101360.88;1449669;88;21332;-82
2023/10/05 07:58:36;;;;;;;7.93;4.33;;;;;;;14.17;100.00;101359.26;1450749;88;22493;-83
2023/10/05 08:01:03;;;;;;;11.83;5.73;;;;;;;14.39;100.00;101355.86;1456211;89;22543;-85
2023/10/05 08:03:30;;;;;;;10.27;5.00;;;;;;;14.59;100.00;101352.61;1456747;89;21325;-83
2023/10/05 08:05:56;;;;;;;16.83;4.77;;;;;;;14.79;100.00;101350.13;1456353;88;21643;-83
2023/10/05 08:08:22;;;;;;;13.70;5.63;;;;;;;14.98;100.00;101353.61;1448817;88;21399;-85
2023/10/05 08:10:49;;;;;;;13.73;4.90;;;;;;;15.07;100.00;101340.69;1456834;89;22499;-85
2023/10/05 08:13:16;;;;;;;11.07;4.50;;;;;;;15.25;100.00;101346.84;1455257;89;21399;-84
2023/10/05 08:15:42;;;;;;;11.77;4.93;;;;;;;15.42;100.00;101341.59;1446761;89;22315;-84
2023/10/05 08:18:09;;;;;;;13.30;4.50;;;;;;;15.62;100.00;101340.38;1455611;89;21472;-85
2023/10/05 08:20:38;;;;;;;9.33;5.17;;;;;;;15.78;100.00;101337.84;1454307;88;21376;-86
2023/10/05 08:23:03;;;;;;;10.00;4.90;;;;;;;15.96;100.00;101331.58;1448180;89;21406;-85
2023/10/05 08:25:30;;;;;;;12.73;5.17;;;;;;;16.17;100.00;101332.00;1457178;89;21340;-85
2023/10/05 08:27:56;;;;;;;13.03;4.70;;;;;;;16.38;100.00;101336.06;1440476;89;21369;-84
2023/10/05 08:30:24;;;;;;;12.67;5.73;;;;;;;16.55;100.00;101329.75;1452413;88;21480;-84
2023/10/05 08:32:51;;;;;;;13.30;6.00;;;;;;;16.64;100.00;101324.75;1445079;88;21392;-85
2023/10/05 08:35:18;;;;;;;9.23;5.50;;;;;;;16.72;100.00;101331.95;1454336;88;22515;-86
2023/10/05 08:37:52;;;;;;;14.00;5.33;;;;;;;16.88;100.00;101325.79;1454397;88;21435;-85
2023/10/05 08:43:10;;;;;;;7.00;4.13;;;;;;;17.07;100.00;101330.80;1457769;88;21435;-85
2023/10/05 08:45:47;;;;;;;10.20;4.70;;;;;;;17.20;100.00;101328.11;1448572;89;21361;-84
2023/10/05 08:48:19;;;;;;;9.10;4.47;;;;;;;17.30;100.00;101332.80;1452296;89;22907;-86
2023/10/05 08:50:51;;;;;;;10.30;5.13;;;;;;;17.53;100.00;101334.25;1528048;88;21429;-86
2023/10/05 08:53:20;;;;;;;9.53;5.03;;;;;;;17.74;100.00;101329.66;1378085;91;21295;-86
2023/10/05 08:55:49;;;;;;;6.95;4.17;;;;;;;17.85;100.00;101327.98;1377378;88;22081;-85
2023/10/05 08:58:18;;;;;;;19.65;5.15;;;;;;;18.05;100.00;101319.03;1383446;89;22197;-84
2023/10/05 09:00:48;;;;;;;9.65;5.17;;;;;;;18.14;100.00;101311.78;1378251;88;21268;-84
2023/10/05 09:03:29;;;;;;;8.48;4.92;;;;;;;18.16;100.00;101306.58;1380224;88;21324;-85
2023/10/05 09:06:15;;;;;;;10.78;5.47;;;;;;;18.30;100.00;101297.44;1530912;89;21317;-85
2023/10/05 09:09:13;;;;;;;17.25;5.95;;;;;;;18.50;100.00;101301.36;1537065;88;21244;-82
2023/10/05 09:11:15;;;;;;;10.68;5.58;;;;;;;18.67;100.00;101295.34;1394510;89;22342;-84
2023/10/05 09:13:46;;;;;;;12.70;6.22;;;;;;;18.78;100.00;101298.97;1392118;89;21405;-84
2023/10/05 09:16:16;;;;;;;13.43;5.80;;;;;;;18.90;100.00;101298.89;1452001;88;21347;-84
2023/10/05 09:18:48;;;;;;;11.40;4.70;;;;;;;19.11;100.00;101293.34;1454610;89;22456;-84
2023/10/05 09:21:19;;;;;;;9.60;4.70;;;;;;;19.44;100.00;101295.67;1376706;89;21399;-84
2023/10/05 09:23:43;;;;;;;9.85;5.03;;;;;;;19.84;100.00;101292.52;1379364;88;21384;-85
2023/10/05 09:26:39;;;;;;;9.43;4.65;;;;;;;20.23;100.00;101289.17;1372234;90;21399;-86
2023/10/05 09:29:23;;;;;;;10.25;5.37;;;;;;;20.65;100.00;101285.67;1537137;88;21317;-87
2023/10/05 09:31:54;;;;;;;9.13;4.42;;;;;;;21.63;100.00;101293.33;1537084;88;21214;-85
2023/10/05 09:34:44;;;;;;;15.45;5.20;;;;;;;21.63;100.00;101293.33;1537015;89;21192;-86
2023/10/05 09:37:13;;;;;;;15.38;4.47;;;;;;;21.99;100.00;101287.38;1520334;89;21237;-85
2023/10/05 09:39:49;;;;;;;11.30;4.78;;;;;;;22.30;87.89;101290.94;1377725;89;21473;-85
2023/10/05 09:42:28;;;;;;;7.03;3.90;;;;;;;22.20;51.38;101287.78;1534549;88;21310;-86
2023/10/05 09:45:06;;;;;;;8.80;4.37;;;;;;;22.12;49.13;101290.10;1513901;89;21348;-86
2023/10/05 09:47:35;;;;;;;7.08;3.77;;;;;;;22.08;48.18;101284.30;1455893;88;21553;-85
2023/10/05 09:50:12;;;;;;;7.58;4.05;;;;;;;22.27;48.35;101284.60;1454517;88;21435;-87
2023/10/05 09:52:43;;;;;;;8.20;3.85;;;;;;;22.48;48.75;101281.72;1454972;89;21361;-85
2023/10/05 09:55:13;;;;;;;10.70;4.60;;;;;;;22.60;46.03;101271.67;1454977;89;21584;-83
2023/10/05 09:57:46;;;;;;;7.03;3.58;;;;;;;22.74;46.19;101278.21;1450662;89;21626;-85
2023/10/05 10:00:27;;;;;;;6.90;4.20;;;;;;;22.77;45.37;101270.22;1453856;89;22250;-84
2023/10/05 10:02:38;;;;;;;;;;;;;;;22.96;45.96;101268.08;1453602;88;21383;-85
2023/10/05 10:05:35;;;;;;;11.80;4.22;;;;;;;23.07;43.17;101264.41;1434249;89;20790;-86
2023/10/05 10:07:40;;;;;;;8.68;4.50;;;;;;;22.98;44.90;101267.84;1446430;89;21628;-83
2023/10/05 10:10:08;;;;;;;11.20;3.92;;;;;;;22.92;44.88;101260.56;1455337;88;21575;-85
2023/10/05 10:12:38;;;;;;;8.93;4.17;;;;;;;22.86;43.86;101256.83;1455887;89;21413;-83
2023/10/05 10:15:24;;;;;;;6.60;3.42;;;;;;;22.93;43.29;101259.52;1455566;88;21631;-85
2023/10/05 10:17:35;;;;;;;8.23;4.90;;;;;;;22.90;43.19;101248.64;1480020;88;21406;-83
2023/10/05 10:20:34;;;;;;;7.83;4.47;;;;;;;23.07;42.80;101244.98;1386679;88;22057;-86
2023/10/05 10:22:50;;;;;;;8.15;4.25;;;;;;;23.27;42.99;101247.65;1536472;88;21454;-84
2023/10/05 10:25:33;;;;;;;30.20;4.72;;;;;;;23.45;40.87;101244.30;1443927;89;21413;-86
2023/10/05 10:28:17;;;;;;;7.55;3.33;;;;;;;23.46;41.97;101244.59;1454949;89;21435;-86
2023/10/05 10:30:51;;;;;;;6.28;3.75;;;;;;;23.46;41.82;101234.31;1448598;89;21369;-85
2023/10/05 10:33:30;;;;;;;7.00;3.83;;;;;;;23.40;41.62;101231.94;1453225;89;21361;-84
2023/10/05 10:36:00;;;;;;;13.93;4.12;;;;;;;22.97;40.28;101235.16;1376466;88;22279;-85
2023/10/05 10:38:27;;;;;;;9.10;3.70;;;;;;;23.03;41.25;101228.09;1391877;88;22360;-86
2023/10/05 10:41:07;;;;;;;7.05;4.28;;;;;;;23.00;40.69;101227.16;1451999;88;21502;-85
2023/10/05 10:43:32;;;;;;;8.15;3.98;;;;;;;23.02;40.80;101219.66;1454627;88;21576;-86
2023/10/05 10:46:00;;;;;;;9.40;3.80;;;;;;;22.89;39.49;101217.27;1432222;89;21406;-85
2023/10/05 10:48:31;;;;;;;8.15;4.12;;;;;;;22.71;40.12;101213.05;1452300;89;21531;-85
2023/10/05 10:51:00;;;;;;;9.98;4.92;;;;;;;22.64;40.28;101212.20;1453791;88;22410;-84
2023/10/05 10:53:31;;;;;;;11.35;4.03;;;;;;;22.64;39.89;101205.46;1456089;88;21635;-85
2023/10/05 10:56:04;;;;;;;;;;;;;;;22.63;39.84;101197.06;1457301;88;22530;-86
2023/10/05 10:58:33;;;;;;;8.75;3.40;;;;;;;22.58;38.60;101196.86;1455935;89;20392;-85
2023/10/05 11:01:04;;;;;;;6.83;3.40;;;;;;;22.44;40.00;101188.78;1454414;89;21457;-85
2023/10/05 11:03:32;;;;;;;9.03;4.85;;;;;;;22.60;40.01;101184.00;1453191;88;21970;-85
2023/10/05 11:06:00;;;;;;;10.53;3.62;;;;;;;22.85;39.85;101185.01;1455823;88;21384;-85
2023/10/05 11:08:40;;;;;;;7.90;3.95;;;;;;;23.06;39.36;101180.42;1453138;89;21427;-84
2023/10/05 11:10:59;;;;;;;14.03;3.47;;;;;;;23.31;39.43;101173.28;1452278;89;21674;-81
2023/10/05 11:13:27;;;;;;;23.38;4.22;;;;;;;23.32;39.13;101162.78;1454788;89;21362;-84
2023/10/05 11:16:00;;;;;;;9.00;3.67;;;;;;;23.29;38.85;101161.86;1411558;88;21788;-83
2023/10/05 11:18:40;;;;;;;6.87;3.62;;;;;;;23.04;38.31;101158.20;1453148;88;21398;-83
2023/10/05 11:21:24;;;;;;;7.05;3.85;;;;;;;22.77;38.10;101156.89;1455938;89;21384;-84
2023/10/05 11:23:47;;;;;;;5.92;3.27;;;;;;;22.74;38.37;101147.88;1377485;90;21465;-82
2023/10/05 11:26:18;;;;;;;9.58;3.77;;;;;;;22.69;38.94;101147.14;1378357;88;21207;-84
2023/10/05 11:28:51;;;;;;;7.72;3.47;;;;;;;22.67;39.25;101147.03;1531099;89;21244;-83
2023/10/05 11:31:22;;;;;;;22.22;4.85;;;;;;;22.71;38.83;101141.55;1537066;88;21178;-83
2023/10/05 11:33:49;;;;;;;6.72;3.37;;;;;;;22.82;38.96;101142.25;1376841;88;21244;-83
2023/10/05 11:36:17;;;;;;;5.53;2.75;;;;;;;22.97;38.51;101145.55;1379394;89;21206;-84
2023/10/05 11:38:44;;;;;;;7.30;2.92;;;;;;;23.00;38.65;101147.53;1378490;88;21398;-84
2023/10/05 11:41:16;;;;;;;5.33;3.10;;;;;;;23.04;38.06;101139.30;1385767;89;22255;-86
2023/10/05 11:43:39;;;;;;;12.55;3.80;;;;;;;23.04;38.32;101140.12;1537526;88;22213;-84
2023/10/05 11:46:23;;;;;;;6.92;3.10;;;;;;;23.12;38.31;101132.33;1396632;88;21398;-85
2023/10/05 11:48:48;;;;;;;;;;;;;;;23.06;37.76;101129.13;1455218;88;22336;-86
2023/10/05 11:51:19;;;;;;;7.00;3.50;;;;;;;23.04;37.80;101132.55;1454052;89;20301;-85
2023/10/05 11:53:47;;;;;;;9.35;3.60;;;;;;;23.04;37.86;101132.03;1370201;89;21273;-84
2023/10/05 11:56:18;;;;;;;8.13;3.27;;;;;;;22.97;37.76;101126.66;1380371;88;21325;-85
2023/10/05 11:58:41;;;;;;;10.32;3.10;;;;;;;23.00;38.06;101124.59;1433267;89;21376;-85
2023/10/05 12:01:08;;;;;;;8.88;2.95;;;;;;;23.13;38.14;101119.13;1380363;88;21243;-82